createdAt,value
2023-09-21T00:02:52.775Z,2.97
2023-09-21T00:05:57.862Z,2.50
2023-09-21T00:09:00.749Z,2.15
2023-09-21T00:12:03.942Z,2.65
2023-09-21T00:15:07.972Z,2.38
2023-09-21T00:18:10.916Z,2.50
2023-09-21T00:21:17.082Z,2.25
2023-09-21T00:24:23.381Z,2.50
2023-09-21T00:27:29.950Z,2.67
2023-09-21T00:30:32.698Z,2.40
2023-09-21T00:33:40.729Z,2.57
2023-09-21T00:36:46.530Z,2.78
2023-09-21T00:39:49.741Z,2.33
2023-09-21T00:42:57.457Z,2.63
2023-09-21T00:46:03.204Z,2.50
2023-09-21T00:49:08.080Z,2.30
2023-09-21T00:52:13.410Z,2.58
2023-09-21T00:55:40.699Z,2.63
2023-09-21T00:58:55.479Z,2.40
2023-09-21T01:01:58.885Z,2.70
2023-09-21T01:05:01.679Z,2.87
2023-09-21T01:08:06.585Z,2.75
2023-09-21T01:11:15.981Z,2.20
2023-09-21T01:14:18.876Z,2.53
2023-09-21T01:17:22.374Z,2.45
2023-09-21T01:20:29.279Z,2.37
2023-09-21T01:23:47.724Z,2.72
2023-09-21T01:26:50.839Z,2.40
2023-09-21T01:29:53.731Z,3.00
2023-09-21T01:32:56.778Z,3.20
2023-09-21T01:35:59.569Z,2.70
2023-09-21T01:39:02.367Z,2.72
2023-09-21T01:42:05.461Z,2.88
2023-09-21T01:45:15.113Z,3.33
2023-09-21T01:48:21.597Z,2.65
2023-09-21T01:51:24.667Z,2.67
2023-09-21T01:54:28.758Z,3.15
2023-09-21T01:57:31.523Z,3.03
2023-09-21T02:00:38.031Z,2.95
2023-09-21T02:03:40.950Z,2.67
2023-09-21T02:06:43.801Z,3.60
2023-09-21T02:09:46.589Z,2.95
2023-09-21T02:12:57.653Z,3.60
2023-09-21T02:16:00.564Z,3.22
2023-09-21T02:19:05.190Z,2.95
2023-09-21T02:22:08.892Z,3.23
2023-09-21T02:25:11.982Z,2.97
2023-09-21T02:28:14.720Z,3.00
2023-09-21T02:31:17.614Z,2.63
2023-09-21T02:34:20.409Z,2.85
2023-09-21T02:37:23.158Z,3.33
2023-09-21T02:40:26.133Z,3.13
2023-09-21T02:43:30.563Z,2.85
2023-09-21T02:46:34.277Z,2.80
2023-09-21T02:49:37.076Z,3.20
2023-09-21T02:52:39.933Z,2.97
2023-09-21T02:55:44.162Z,2.97
2023-09-21T02:58:47.579Z,2.88
2023-09-21T03:01:51.441Z,3.13
2023-09-21T03:04:56.569Z,3.20
2023-09-21T03:07:59.317Z,3.33
2023-09-21T03:11:02.103Z,3.20
2023-09-21T03:14:05.984Z,2.90
2023-09-21T03:17:09.345Z,3.17
2023-09-21T03:20:14.262Z,3.45
2023-09-21T03:23:17.795Z,3.27
2023-09-21T03:26:22.874Z,3.72
2023-09-21T03:29:26.633Z,3.50
2023-09-21T03:32:30.563Z,3.20
2023-09-21T03:35:33.812Z,3.55
2023-09-21T03:38:36.551Z,3.13
2023-09-21T03:41:39.439Z,3.10
2023-09-21T03:44:43.577Z,3.00
2023-09-21T03:47:47.950Z,2.72
2023-09-21T03:50:53.574Z,3.40
2023-09-21T03:54:00.674Z,3.80
2023-09-21T03:57:03.540Z,3.83
2023-09-21T04:00:26.367Z,3.53
2023-09-21T04:03:30.768Z,3.47
2023-09-21T04:06:36.189Z,4.35
2023-09-21T04:09:38.925Z,3.83
2023-09-21T04:12:41.927Z,3.78
2023-09-21T04:15:44.681Z,3.47
2023-09-21T04:18:47.663Z,3.40
2023-09-21T04:21:52.255Z,3.92
2023-09-21T04:24:55.353Z,3.80
2023-09-21T04:27:59.081Z,3.38
2023-09-21T04:31:02.595Z,3.80
2023-09-21T04:34:05.961Z,3.88
2023-09-21T04:37:10.486Z,3.88
2023-09-21T04:40:13.978Z,4.10
2023-09-21T04:43:18.868Z,3.90
2023-09-21T04:46:21.839Z,3.47
2023-09-21T04:49:26.332Z,3.63
2023-09-21T04:52:32.130Z,3.75
2023-09-21T04:55:37.300Z,4.60
2023-09-21T04:58:40.079Z,3.88
2023-09-21T05:01:43.037Z,4.10
2023-09-21T05:04:46.167Z,3.92
2023-09-21T05:07:48.954Z,4.63
2023-09-21T05:10:52.319Z,4.17
2023-09-21T05:13:55.162Z,4.20
2023-09-21T05:16:59.912Z,5.07
2023-09-21T05:20:02.828Z,4.57
2023-09-21T05:23:05.988Z,4.63
2023-09-21T05:26:08.749Z,5.37
2023-09-21T05:29:12.376Z,5.38
2023-09-21T05:32:15.266Z,4.82
2023-09-21T05:35:18.239Z,4.72
2023-09-21T05:38:21.409Z,4.38
2023-09-21T05:41:24.193Z,4.77
2023-09-21T05:44:27.212Z,4.18
2023-09-21T05:47:30.822Z,3.83
2023-09-21T05:50:34.332Z,3.80
2023-09-21T05:53:37.416Z,4.10
2023-09-21T05:56:40.576Z,3.70
2023-09-21T05:59:43.455Z,3.90
2023-09-21T06:02:46.453Z,3.70
2023-09-21T06:05:49.450Z,3.42
2023-09-21T06:08:54.278Z,3.70
2023-09-21T06:11:57.215Z,3.70
2023-09-21T06:15:00.110Z,3.88
2023-09-21T06:18:03.114Z,4.28
2023-09-21T06:21:08.028Z,4.07
2023-09-21T06:24:11.604Z,3.95
2023-09-21T06:27:15.836Z,3.77
2023-09-21T06:30:19.260Z,3.60
2023-09-21T06:33:26.070Z,3.95
2023-09-21T06:36:30.624Z,3.45
2023-09-21T06:39:33.989Z,3.25
2023-09-21T06:42:37.066Z,3.70
2023-09-21T06:45:41.023Z,3.92
2023-09-21T06:48:44.395Z,3.53
2023-09-21T06:51:48.236Z,3.60
2023-09-21T06:54:51.156Z,3.28
2023-09-21T06:57:56.560Z,3.50
2023-09-21T07:01:00.034Z,3.60
2023-09-21T07:04:05.567Z,3.20
2023-09-21T07:07:09.620Z,3.40
2023-09-21T07:10:16.022Z,3.95
2023-09-21T07:13:22.118Z,3.67
2023-09-21T07:16:25.203Z,3.65
2023-09-21T07:19:28.032Z,3.55
2023-09-21T07:22:30.816Z,4.15
2023-09-21T07:25:33.649Z,3.78
2023-09-21T07:28:36.804Z,3.93
2023-09-21T07:31:39.797Z,4.10
2023-09-21T07:34:42.750Z,3.78
2023-09-21T07:37:47.615Z,4.00
2023-09-21T07:40:50.924Z,4.18
2023-09-21T07:43:53.929Z,3.93
2023-09-21T07:46:58.505Z,3.90
2023-09-21T07:50:01.409Z,3.88
2023-09-21T07:53:05.572Z,3.78
2023-09-21T07:56:13.372Z,4.20
2023-09-21T07:59:17.371Z,3.90
2023-09-21T08:02:20.459Z,4.40
2023-09-21T08:05:24.158Z,4.00
2023-09-21T08:08:27.479Z,3.63
2023-09-21T08:11:30.554Z,4.50
2023-09-21T08:14:36.265Z,4.30
2023-09-21T08:17:42.444Z,4.22
2023-09-21T08:20:45.438Z,4.50
2023-09-21T08:23:48.375Z,4.70
2023-09-21T08:26:51.563Z,5.00
2023-09-21T08:29:54.349Z,4.63
2023-09-21T08:32:57.187Z,4.70
2023-09-21T08:36:01.531Z,4.32
2023-09-21T08:39:06.112Z,4.28
2023-09-21T08:42:11.246Z,4.50
2023-09-21T08:45:16.572Z,4.27
2023-09-21T08:48:22.254Z,4.45
2023-09-21T08:51:27.035Z,4.30
2023-09-21T08:54:30.692Z,4.20
2023-09-21T08:57:33.668Z,4.53
2023-09-21T09:00:37.428Z,4.73
2023-09-21T09:03:41.298Z,4.45
2023-09-21T09:06:44.422Z,4.28
2023-09-21T09:09:47.763Z,4.45
2023-09-21T09:13:06.785Z,4.60
2023-09-21T09:16:09.741Z,4.20
2023-09-21T09:19:13.567Z,4.10
2023-09-21T09:22:17.523Z,4.60
2023-09-21T09:25:22.536Z,4.72
2023-09-21T09:28:27.633Z,4.28
2023-09-21T09:31:30.646Z,4.30
2023-09-21T09:34:33.456Z,4.20
2023-09-21T09:37:38.830Z,3.58
2023-09-21T09:40:44.104Z,3.70
2023-09-21T09:43:53.895Z,4.30
2023-09-21T09:46:59.210Z,5.13
2023-09-21T09:50:04.370Z,4.07
2023-09-21T09:53:12.379Z,3.88
2023-09-21T09:56:16.421Z,3.95
2023-09-21T09:59:22.828Z,3.78
2023-09-21T10:02:32.245Z,4.00
2023-09-21T10:05:37.429Z,4.32
2023-09-21T10:08:41.113Z,4.03
2023-09-21T10:11:48.360Z,4.40
2023-09-21T10:14:51.542Z,4.30
2023-09-21T10:17:58.694Z,3.40
2023-09-21T10:21:32.355Z,4.40
2023-09-21T10:24:35.777Z,4.13
2023-09-21T10:27:40.918Z,3.67
2023-09-21T10:30:44.805Z,3.40
2023-09-21T10:34:02.758Z,3.57
2023-09-21T10:37:12.541Z,3.10
2023-09-21T10:40:21.406Z,3.70
2023-09-21T10:43:39.168Z,3.78
2023-09-21T10:46:45.234Z,3.90
2023-09-21T10:49:50.068Z,3.83
2023-09-21T10:52:57.118Z,3.83
2023-09-21T10:56:01.151Z,3.50
2023-09-21T10:59:03.988Z,3.75
2023-09-21T11:02:08.193Z,3.47
2023-09-21T11:05:12.253Z,3.53
2023-09-21T11:08:16.915Z,3.20
2023-09-21T11:11:23.456Z,3.40
2023-09-21T11:14:26.497Z,3.60
2023-09-21T11:17:30.363Z,3.28
2023-09-21T11:20:33.650Z,3.50
2023-09-21T11:23:40.194Z,4.03
2023-09-21T11:26:55.809Z,3.53
2023-09-21T11:29:58.898Z,3.40
2023-09-21T11:33:01.989Z,3.60
2023-09-21T11:36:22.838Z,3.40
2023-09-21T11:39:29.147Z,3.30
2023-09-21T11:42:34.611Z,3.55
2023-09-21T11:45:43.702Z,3.50
2023-09-21T11:48:50.186Z,3.03
2023-09-21T11:51:54.685Z,3.50
2023-09-21T11:54:58.197Z,3.40
2023-09-21T11:58:08.720Z,2.80
2023-09-21T12:01:11.899Z,2.90
2023-09-21T12:04:18.288Z,2.72
2023-09-21T12:07:21.547Z,2.80
2023-09-21T12:10:25.727Z,3.00
2023-09-21T12:13:31.743Z,2.80
2023-09-21T12:16:35.618Z,2.75
2023-09-21T12:19:40.594Z,2.50
2023-09-21T12:22:43.756Z,2.80
2023-09-21T12:25:47.879Z,2.92
2023-09-21T12:28:50.939Z,2.80
2023-09-21T12:31:59.913Z,2.80
2023-09-21T12:35:07.944Z,2.90
2023-09-21T12:38:14.486Z,2.80
2023-09-21T12:41:17.396Z,2.72
2023-09-21T12:44:20.495Z,2.90
2023-09-21T12:47:23.643Z,3.13
2023-09-21T12:50:27.949Z,3.20
2023-09-21T12:53:31.242Z,2.90
2023-09-21T12:56:35.332Z,3.28
2023-09-21T12:59:38.460Z,3.15
2023-09-21T13:02:43.558Z,3.28
2023-09-21T13:05:49.000Z,3.40
2023-09-21T13:08:51.863Z,3.13
2023-09-21T13:11:56.306Z,4.43
2023-09-21T13:14:59.843Z,3.47
2023-09-21T13:18:03.986Z,2.80
2023-09-21T13:21:11.664Z,3.25
2023-09-21T13:24:14.938Z,3.20
2023-09-21T13:27:18.844Z,2.65
2023-09-21T13:30:22.185Z,3.05
2023-09-21T13:33:25.847Z,3.22
2023-09-21T13:39:51.305Z,2.60
2023-09-21T13:42:55.045Z,2.20
2023-09-21T13:46:00.911Z,2.90
2023-09-21T13:49:04.384Z,2.90
2023-09-21T13:52:08.302Z,2.83
2023-09-21T13:55:18.362Z,2.53
2023-09-21T13:58:23.872Z,2.60
2023-09-21T14:01:28.567Z,2.47
2023-09-21T14:04:31.813Z,2.50
2023-09-21T14:07:36.036Z,2.22
2023-09-21T14:10:40.246Z,2.30
2023-09-21T14:13:43.543Z,2.35
2023-09-21T14:16:47.589Z,2.17
2023-09-21T14:19:50.967Z,2.47
2023-09-21T14:22:56.336Z,2.40
2023-09-21T14:25:59.130Z,2.80
2023-09-21T14:29:01.861Z,2.47
2023-09-21T14:32:05.477Z,2.60
2023-09-21T14:35:14.540Z,2.10
2023-09-21T14:38:18.205Z,2.50
2023-09-21T14:41:20.929Z,2.50
2023-09-21T14:44:23.949Z,2.45
2023-09-21T14:47:32.065Z,2.83
2023-09-21T14:50:35.321Z,2.28
2023-09-21T14:53:38.334Z,2.20
2023-09-21T14:56:46.330Z,2.50
2023-09-21T14:59:49.364Z,2.63
2023-09-21T15:02:54.056Z,2.45
2023-09-21T15:05:57.055Z,2.85
2023-09-21T15:09:00.346Z,2.55
2023-09-21T15:12:04.893Z,2.50
2023-09-21T15:15:09.186Z,2.88
2023-09-21T15:18:15.335Z,2.17
2023-09-21T15:21:19.406Z,2.53
2023-09-21T15:24:23.701Z,2.53
2023-09-21T15:27:32.820Z,2.90
2023-09-21T15:30:43.010Z,2.67
2023-09-21T15:33:56.280Z,2.60
2023-09-21T15:36:59.373Z,2.53
2023-09-21T15:40:02.523Z,2.40
2023-09-21T15:43:06.117Z,2.70
2023-09-21T15:46:09.292Z,2.47
2023-09-21T15:49:13.083Z,2.60
2023-09-21T15:52:16.772Z,2.92
2023-09-21T15:55:19.811Z,2.72
2023-09-21T15:58:22.520Z,3.13
2023-09-21T16:01:25.820Z,3.40
2023-09-21T16:04:29.487Z,2.67
2023-09-21T16:07:32.680Z,2.88
2023-09-21T16:10:35.610Z,2.72
2023-09-21T16:13:38.835Z,2.80
2023-09-21T16:16:41.997Z,2.35
2023-09-21T16:19:45.141Z,2.25
2023-09-21T16:22:48.950Z,2.30
2023-09-21T16:25:52.203Z,2.00
2023-09-21T16:28:55.268Z,2.53
2023-09-21T16:32:01.281Z,2.30
2023-09-21T16:35:05.526Z,3.10
2023-09-21T16:38:09.114Z,3.03
2023-09-21T16:41:12.304Z,2.60
2023-09-21T16:44:14.982Z,2.63
2023-09-21T16:47:21.944Z,2.90
2023-09-21T16:50:24.735Z,2.70
2023-09-21T16:53:29.078Z,2.30
2023-09-21T16:56:34.518Z,2.50
2023-09-21T16:59:37.480Z,2.07
2023-09-21T17:02:40.901Z,2.28
2023-09-21T17:05:43.722Z,2.25
2023-09-21T17:08:47.368Z,2.10
2023-09-21T17:11:50.194Z,2.30
2023-09-21T17:14:56.194Z,2.20
2023-09-21T17:18:00.004Z,2.33
2023-09-21T17:21:06.813Z,2.20
2023-09-21T17:24:10.284Z,1.80
2023-09-21T17:27:13.173Z,2.20
2023-09-21T17:30:16.686Z,2.07
2023-09-21T17:33:20.844Z,2.13
2023-09-21T17:36:25.115Z,2.05
2023-09-21T17:39:42.937Z,1.80
2023-09-21T17:42:47.450Z,2.28
2023-09-21T17:45:50.716Z,1.93
2023-09-21T17:48:57.184Z,2.15
2023-09-21T17:55:54.019Z,2.20
2023-09-21T17:58:57.420Z,2.22
2023-09-21T18:02:00.654Z,2.30
2023-09-21T18:05:04.378Z,2.65
2023-09-21T18:08:07.648Z,2.35
2023-09-21T18:11:10.721Z,2.90
2023-09-21T18:14:13.846Z,2.13
2023-09-21T18:17:17.144Z,2.20
2023-09-21T18:20:22.990Z,2.60
2023-09-21T18:23:26.849Z,2.30
2023-09-21T18:26:29.935Z,2.20
2023-09-21T18:29:34.175Z,2.10
2023-09-21T18:32:38.300Z,2.17
2023-09-21T18:35:41.871Z,2.78
2023-09-21T18:38:46.518Z,2.65
2023-09-21T18:41:50.018Z,2.65
2023-09-21T18:44:52.809Z,2.60
2023-09-21T18:47:55.722Z,4.00
2023-09-21T18:51:01.039Z,2.80
2023-09-21T18:54:06.671Z,3.30
2023-09-21T18:57:10.511Z,2.95
2023-09-21T19:00:15.928Z,2.70
2023-09-21T19:03:19.881Z,2.70
2023-09-21T19:06:23.411Z,2.70
2023-09-21T19:09:26.544Z,2.80
2023-09-21T19:12:30.239Z,3.17
2023-09-21T19:15:33.593Z,3.50
2023-09-21T19:18:36.855Z,3.20
2023-09-21T19:21:39.650Z,2.95
2023-09-21T19:24:43.365Z,3.15
2023-09-21T19:27:49.241Z,3.88
2023-09-21T19:30:52.427Z,3.60
2023-09-21T19:33:56.660Z,3.80
2023-09-21T19:36:59.780Z,3.00
2023-09-21T19:40:03.105Z,3.72
2023-09-21T19:43:06.297Z,3.28
2023-09-21T19:46:09.446Z,3.60
2023-09-21T19:49:14.104Z,3.83
2023-09-21T19:52:16.931Z,3.63
2023-09-21T19:55:19.915Z,3.88
2023-09-21T19:58:23.038Z,4.13
2023-09-21T20:01:26.399Z,4.28
2023-09-21T20:04:29.501Z,4.20
2023-09-21T20:07:32.884Z,4.40
2023-09-21T20:10:35.952Z,4.50
2023-09-21T20:13:39.217Z,4.72
2023-09-21T20:16:42.224Z,4.95
2023-09-21T20:19:45.076Z,4.70
2023-09-21T20:22:47.940Z,4.68
2023-09-21T20:25:50.921Z,4.40
2023-09-21T20:28:53.698Z,4.40
2023-09-21T20:31:57.275Z,4.70
2023-09-21T20:35:00.189Z,4.53
2023-09-21T20:38:03.557Z,4.80
2023-09-21T20:41:06.453Z,5.50
2023-09-21T20:44:09.615Z,5.15
2023-09-21T20:47:12.402Z,5.40
2023-09-21T20:50:15.486Z,5.17
2023-09-21T20:53:18.736Z,4.57
2023-09-21T20:56:21.475Z,4.60
2023-09-21T20:59:24.200Z,4.40
2023-09-21T21:02:27.377Z,4.50
2023-09-21T21:05:31.037Z,4.10
2023-09-21T21:08:35.198Z,4.95
2023-09-21T21:11:38.240Z,4.32
2023-09-21T21:14:42.171Z,4.70
2023-09-21T21:17:45.230Z,4.18
2023-09-21T21:20:48.060Z,4.17
2023-09-21T21:23:51.045Z,4.57
2023-09-21T21:26:54.587Z,4.90
2023-09-21T21:29:57.607Z,4.43
2023-09-21T21:33:00.697Z,4.68
2023-09-21T21:36:04.136Z,5.20
2023-09-21T21:39:07.263Z,5.05
2023-09-21T21:42:11.274Z,4.90
2023-09-21T21:45:14.786Z,5.32
2023-09-21T21:48:17.837Z,5.72
2023-09-21T21:51:20.648Z,6.50
2023-09-21T21:54:23.566Z,6.30
2023-09-21T21:57:26.804Z,5.97
2023-09-21T22:00:32.809Z,6.18
2023-09-21T22:03:36.060Z,5.93
2023-09-21T22:06:39.204Z,5.80
2023-09-21T22:09:42.519Z,5.60
2023-09-21T22:12:45.792Z,5.88
2023-09-21T22:15:49.409Z,5.85
2023-09-21T22:18:52.393Z,5.88
2023-09-21T22:21:56.822Z,5.43
2023-09-21T22:25:01.281Z,6.05
2023-09-21T22:28:05.279Z,5.80
2023-09-21T22:31:13.300Z,5.80
2023-09-21T22:34:16.547Z,6.00
2023-09-21T22:37:19.592Z,6.17
2023-09-21T22:40:22.600Z,5.70
2023-09-21T22:43:26.078Z,5.65
2023-09-21T22:46:29.193Z,6.53
2023-09-21T22:49:32.774Z,6.10
2023-09-21T22:52:35.917Z,6.10
2023-09-21T22:55:39.222Z,5.85
2023-09-21T22:58:41.985Z,5.93
2023-09-21T23:01:45.143Z,6.35
2023-09-21T23:04:51.922Z,6.00
2023-09-21T23:07:57.321Z,6.17
2023-09-21T23:11:04.332Z,6.25
2023-09-21T23:14:07.389Z,5.38
2023-09-21T23:17:10.554Z,6.15
2023-09-21T23:20:16.746Z,6.35
2023-09-21T23:23:19.953Z,6.20
2023-09-21T23:26:22.997Z,6.10
2023-09-21T23:29:26.045Z,6.30
2023-09-21T23:32:29.344Z,5.75
2023-09-21T23:35:33.728Z,5.90
2023-09-21T23:38:36.578Z,5.93
2023-09-21T23:41:39.638Z,6.40
2023-09-21T23:44:42.882Z,5.95
2023-09-21T23:47:45.963Z,5.40
2023-09-21T23:50:49.046Z,5.55
2023-09-21T23:53:52.658Z,5.20
2023-09-21T23:56:55.898Z,5.50
2023-09-21T23:59:59.685Z,5.40
